Time,TemperatureF,DewpointF,PressureIn,WindDirection,WindDirectionDegrees,WindSpeedMPH,WindSpeedGustMPH,Humidity,HourlyPrecipIn,Conditions,Clouds,dailyrainin,SoftwareType,DateUTC
2013-06-06 00:12:00,44.0,41.0,-100.00,WNW,291,2.0,2.0,87,0.00,,,0.00,,2013-06-06 06:12:00,
2013-06-06 00:22:00,44.0,41.0,-100.00,WNW,291,2.0,2.0,87,0.00,,,0.00,,2013-06-06 06:22:00,
2013-06-06 00:32:00,44.0,41.0,-100.00,WNW,291,2.0,2.0,87,0.00,,,0.00,,2013-06-06 06:32:00,
2013-06-06 00:42:00,44.0,41.0,-100.00,WNW,291,2.0,2.0,87,0.00,,,0.00,,2013-06-06 06:42:00,
2013-06-06 00:52:00,44.0,41.0,-100.00,WNW,291,2.0,2.0,87,0.00,,,0.00,,2013-06-06 06:52:00,
2013-06-06 01:12:00,42.0,39.0,-100.00,NNW,340,1.0,1.0,89,0.00,,,0.00,,2013-06-06 07:12:00,
2013-06-06 01:22:00,42.0,39.0,-100.00,NNW,340,1.0,1.0,89,0.00,,,0.00,,2013-06-06 07:22:00,
2013-06-06 01:32:00,42.0,39.0,-100.00,NNW,340,1.0,1.0,89,0.00,,,0.00,,2013-06-06 07:32:00,
2013-06-06 01:42:00,42.0,39.0,-100.00,NNW,340,1.0,1.0,89,0.00,,,0.00,,2013-06-06 07:42:00,
2013-06-06 01:52:00,42.0,39.0,-100.00,NNW,340,1.0,1.0,89,0.00,,,0.00,,2013-06-06 07:52:00,
2013-06-06 02:12:00,39.0,38.0,-100.00,North,6,1.0,1.0,96,0.00,,,0.00,,2013-06-06 08:12:00,
2013-06-06 02:22:00,39.0,38.0,-100.00,North,6,1.0,1.0,96,0.00,,,0.00,,2013-06-06 08:22:00,
2013-06-06 02:32:00,39.0,38.0,-100.00,North,6,1.0,1.0,96,0.00,,,0.00,,2013-06-06 08:32:00,
2013-06-06 02:42:00,39.0,38.0,-100.00,North,6,1.0,1.0,96,0.00,,,0.00,,2013-06-06 08:42:00,
2013-06-06 02:52:00,39.0,38.0,-100.00,North,6,1.0,1.0,96,0.00,,,0.00,,2013-06-06 08:52:00,
2013-06-06 03:12:00,37.0,37.0,-100.00,North,355,1.0,2.0,97,0.00,,,0.00,,2013-06-06 09:12:00,
2013-06-06 03:22:00,37.0,37.0,-100.00,North,355,1.0,2.0,97,0.00,,,0.00,,2013-06-06 09:22:00,
2013-06-06 03:33:00,37.0,37.0,-100.00,North,355,1.0,2.0,97,0.00,,,0.00,,2013-06-06 09:33:00,
2013-06-06 03:43:00,37.0,37.0,-100.00,North,355,1.0,2.0,97,0.00,,,0.00,,2013-06-06 09:43:00,
2013-06-06 03:53:00,37.0,37.0,-100.00,North,355,1.0,2.0,97,0.00,,,0.00,,2013-06-06 09:53:00,
2013-06-06 04:12:00,36.0,36.0,-100.00,North,2,1.0,1.0,97,0.00,,,0.00,,2013-06-06 10:12:00,
2013-06-06 04:22:00,36.0,36.0,-100.00,North,2,1.0,1.0,97,0.00,,,0.00,,2013-06-06 10:22:00,
2013-06-06 04:33:00,36.0,36.0,-100.00,North,2,1.0,1.0,97,0.00,,,0.00,,2013-06-06 10:33:00,
2013-06-06 04:42:00,36.0,36.0,-100.00,North,2,1.0,1.0,97,0.00,,,0.00,,2013-06-06 10:42:00,
2013-06-06 04:52:00,36.0,36.0,-100.00,North,2,1.0,1.0,97,0.00,,,0.00,,2013-06-06 10:52:00,
2013-06-06 05:12:00,35.0,34.0,-100.00,North,9,4.0,5.0,97,0.00,,,0.00,,2013-06-06 11:12:00,
2013-06-06 05:22:00,35.0,34.0,-100.00,North,9,4.0,5.0,97,0.00,,,0.00,,2013-06-06 11:22:00,
2013-06-06 05:32:00,35.0,34.0,-100.00,North,9,4.0,5.0,97,0.00,,,0.00,,2013-06-06 11:32:00,
2013-06-06 05:42:00,35.0,34.0,-100.00,North,9,4.0,5.0,97,0.00,,,0.00,,2013-06-06 11:42:00,
2013-06-06 05:52:00,35.0,34.0,-100.00,North,9,4.0,5.0,97,0.00,,,0.00,,2013-06-06 11:52:00,
2013-06-06 06:12:00,34.0,34.0,-100.00,NNW,339,1.0,2.0,98,0.00,,,0.00,,2013-06-06 12:12:00,
2013-06-06 06:22:00,34.0,34.0,-100.00,NNW,339,1.0,2.0,98,0.00,,,0.00,,2013-06-06 12:22:00,
2013-06-06 06:32:00,34.0,34.0,-100.00,NNW,339,1.0,2.0,98,0.00,,,0.00,,2013-06-06 12:32:00,
2013-06-06 06:42:00,34.0,34.0,-100.00,NNW,339,1.0,2.0,98,0.00,,,0.00,,2013-06-06 12:42:00,
2013-06-06 06:52:00,34.0,34.0,-100.00,NNW,339,1.0,2.0,98,0.00,,,0.00,,2013-06-06 12:52:00,
2013-06-06 07:12:00,41.0,38.0,-100.00,NNE,16,1.0,2.0,91,0.00,,,0.00,,2013-06-06 13:12:00,
2013-06-06 07:22:00,41.0,38.0,-100.00,NNE,16,1.0,2.0,91,0.00,,,0.00,,2013-06-06 13:22:00,
2013-06-06 07:32:00,41.0,38.0,-100.00,NNE,16,1.0,2.0,91,0.00,,,0.00,,2013-06-06 13:32:00,
2013-06-06 07:42:00,41.0,38.0,-100.00,NNE,16,1.0,2.0,91,0.00,,,0.00,,2013-06-06 13:42:00,
2013-06-06 07:52:00,41.0,38.0,-100.00,NNE,16,1.0,2.0,91,0.00,,,0.00,,2013-06-06 13:52:00,
2013-06-06 08:12:00,52.0,39.0,-100.00,NE,39,2.0,5.0,61,0.00,,,0.00,,2013-06-06 14:12:00,
2013-06-06 08:22:00,52.0,39.0,-100.00,NE,39,2.0,5.0,61,0.00,,,0.00,,2013-06-06 14:22:00,
2013-06-06 08:32:00,52.0,39.0,-100.00,NE,39,2.0,5.0,61,0.00,,,0.00,,2013-06-06 14:32:00,
2013-06-06 08:42:00,52.0,39.0,-100.00,NE,39,2.0,5.0,61,0.00,,,0.00,,2013-06-06 14:42:00,
2013-06-06 08:52:00,52.0,39.0,-100.00,NE,39,2.0,5.0,61,0.00,,,0.00,,2013-06-06 14:52:00,
2013-06-06 09:12:00,61.0,41.0,-100.00,NNE,33,1.0,2.0,48,0.00,,,0.00,,2013-06-06 15:12:00,
2013-06-06 09:22:00,61.0,41.0,-100.00,NNE,33,1.0,2.0,48,0.00,,,0.00,,2013-06-06 15:22:00,
2013-06-06 09:32:00,61.0,41.0,-100.00,NNE,33,1.0,2.0,48,0.00,,,0.00,,2013-06-06 15:32:00,
2013-06-06 09:43:00,61.0,41.0,-100.00,NNE,33,1.0,2.0,48,0.00,,,0.00,,2013-06-06 15:43:00,
2013-06-06 09:52:00,61.0,41.0,-100.00,NNE,33,1.0,2.0,48,0.00,,,0.00,,2013-06-06 15:52:00,
2013-06-06 10:12:00,66.0,37.0,-100.00,SW,218,1.0,5.0,35,0.00,,,0.00,,2013-06-06 16:12:00,
2013-06-06 10:23:00,66.0,37.0,-100.00,SW,218,1.0,5.0,35,0.00,,,0.00,,2013-06-06 16:23:00,
2013-06-06 10:33:00,66.0,37.0,-100.00,SW,218,1.0,5.0,35,0.00,,,0.00,,2013-06-06 16:33:00,
2013-06-06 10:43:00,66.0,37.0,-100.00,SW,218,1.0,5.0,35,0.00,,,0.00,,2013-06-06 16:43:00,
2013-06-06 10:52:00,66.0,37.0,-100.00,SW,218,1.0,5.0,35,0.00,,,0.00,,2013-06-06 16:52:00,
2013-06-06 11:13:00,68.0,35.0,-100.00,ENE,75,6.0,7.0,30,0.00,,,0.00,,2013-06-06 17:13:00,
2013-06-06 11:22:00,68.0,35.0,-100.00,ENE,75,6.0,7.0,30,0.00,,,0.00,,2013-06-06 17:22:00,
2013-06-06 11:32:00,68.0,35.0,-100.00,ENE,75,6.0,7.0,30,0.00,,,0.00,,2013-06-06 17:32:00,
2013-06-06 11:42:00,68.0,35.0,-100.00,ENE,75,6.0,7.0,30,0.00,,,0.00,,2013-06-06 17:42:00,
2013-06-06 11:52:00,68.0,35.0,-100.00,ENE,75,6.0,7.0,30,0.00,,,0.00,,2013-06-06 17:52:00,
2013-06-06 12:13:00,70.0,36.0,-100.00,SW,221,2.0,5.0,29,0.00,,,0.00,,2013-06-06 18:13:00,
2013-06-06 12:22:00,70.0,36.0,-100.00,SW,221,2.0,5.0,29,0.00,,,0.00,,2013-06-06 18:22:00,
2013-06-06 12:33:00,70.0,36.0,-100.00,SW,221,2.0,5.0,29,0.00,,,0.00,,2013-06-06 18:33:00,
2013-06-06 12:43:00,70.0,36.0,-100.00,SW,221,2.0,5.0,29,0.00,,,0.00,,2013-06-06 18:43:00,
2013-06-06 12:52:00,70.0,36.0,-100.00,SW,221,2.0,5.0,29,0.00,,,0.00,,2013-06-06 18:52:00,
2013-06-06 13:12:00,70.0,35.0,-100.00,NW,316,4.0,6.0,28,0.00,,,0.00,,2013-06-06 19:12:00,
2013-06-06 13:23:00,70.0,35.0,-100.00,NW,316,4.0,6.0,28,0.00,,,0.00,,2013-06-06 19:23:00,
2013-06-06 13:33:00,70.0,35.0,-100.00,NW,316,4.0,6.0,28,0.00,,,0.00,,2013-06-06 19:33:00,
2013-06-06 13:42:00,70.0,35.0,-100.00,NW,316,4.0,6.0,28,0.00,,,0.00,,2013-06-06 19:42:00,
2013-06-06 13:52:00,70.0,35.0,-100.00,NW,316,4.0,6.0,28,0.00,,,0.00,,2013-06-06 19:52:00,
2013-06-06 14:13:00,71.0,36.0,-100.00,West,275,4.0,7.0,28,0.00,,,0.00,,2013-06-06 20:13:00,
2013-06-06 14:22:00,71.0,36.0,-100.00,West,275,4.0,7.0,28,0.00,,,0.00,,2013-06-06 20:22:00,
2013-06-06 14:33:00,71.0,36.0,-100.00,West,275,4.0,7.0,28,0.00,,,0.00,,2013-06-06 20:33:00,
2013-06-06 14:42:00,71.0,36.0,-100.00,West,275,4.0,7.0,28,0.00,,,0.00,,2013-06-06 20:42:00,
2013-06-06 14:52:00,71.0,36.0,-100.00,West,275,4.0,7.0,28,0.00,,,0.00,,2013-06-06 20:52:00,
2013-06-06 15:12:00,72.0,41.0,-100.00,South,183,2.0,5.0,33,0.00,,,0.00,,2013-06-06 21:12:00,
2013-06-06 15:22:00,72.0,41.0,-100.00,South,183,2.0,5.0,33,0.00,,,0.00,,2013-06-06 21:22:00,
2013-06-06 15:33:00,72.0,41.0,-100.00,South,183,2.0,5.0,33,0.00,,,0.00,,2013-06-06 21:33:00,
2013-06-06 15:43:00,72.0,41.0,-100.00,South,183,2.0,5.0,33,0.00,,,0.00,,2013-06-06 21:43:00,
2013-06-06 15:53:00,72.0,41.0,-100.00,South,183,2.0,5.0,33,0.00,,,0.00,,2013-06-06 21:53:00,
2013-06-06 16:13:00,71.0,42.0,-100.00,SW,220,2.0,5.0,35,0.00,,,0.00,,2013-06-06 22:13:00,
2013-06-06 16:23:00,71.0,42.0,-100.00,SW,220,2.0,5.0,35,0.00,,,0.00,,2013-06-06 22:23:00,
2013-06-06 16:33:00,71.0,42.0,-100.00,SW,220,2.0,5.0,35,0.00,,,0.00,,2013-06-06 22:33:00,
2013-06-06 16:43:00,71.0,42.0,-100.00,SW,220,2.0,5.0,35,0.00,,,0.00,,2013-06-06 22:43:00,
2013-06-06 16:52:00,71.0,42.0,-100.00,SW,220,2.0,5.0,35,0.00,,,0.00,,2013-06-06 22:52:00,
2013-06-06 17:12:00,69.0,39.0,-100.00,South,176,4.0,7.0,33,0.00,,,0.00,,2013-06-06 23:12:00,
2013-06-06 17:22:00,69.0,39.0,-100.00,South,176,4.0,7.0,33,0.00,,,0.00,,2013-06-06 23:22:00,
2013-06-06 17:33:00,69.0,39.0,-100.00,South,176,4.0,7.0,33,0.00,,,0.00,,2013-06-06 23:33:00,
2013-06-06 17:42:00,69.0,39.0,-100.00,South,176,4.0,7.0,33,0.00,,,0.00,,2013-06-06 23:42:00,
2013-06-06 17:52:00,69.0,39.0,-100.00,South,176,4.0,7.0,33,0.00,,,0.00,,2013-06-06 23:52:00,
2013-06-06 18:12:00,68.0,39.0,-100.00,WSW,248,5.0,7.0,34,0.00,,,0.00,,2013-06-07 00:12:00,
2013-06-06 18:22:00,68.0,39.0,-100.00,WSW,248,5.0,7.0,34,0.00,,,0.00,,2013-06-07 00:22:00,
2013-06-06 18:32:00,68.0,39.0,-100.00,WSW,248,5.0,7.0,34,0.00,,,0.00,,2013-06-07 00:32:00,
2013-06-06 18:42:00,68.0,39.0,-100.00,WSW,248,5.0,7.0,34,0.00,,,0.00,,2013-06-07 00:42:00,
2013-06-06 18:52:00,68.0,39.0,-100.00,WSW,248,5.0,7.0,34,0.00,,,0.00,,2013-06-07 00:52:00,
2013-06-06 19:12:00,71.0,39.0,-100.00,SW,236,6.0,8.0,31,0.00,,,0.00,,2013-06-07 01:12:00,
2013-06-06 19:22:00,71.0,39.0,-100.00,SW,236,6.0,8.0,31,0.00,,,0.00,,2013-06-07 01:22:00,
2013-06-06 19:32:00,71.0,39.0,-100.00,SW,236,6.0,8.0,31,0.00,,,0.00,,2013-06-07 01:32:00,
2013-06-06 19:42:00,71.0,39.0,-100.00,SW,236,6.0,8.0,31,0.00,,,0.00,,2013-06-07 01:42:00,
2013-06-06 19:52:00,71.0,39.0,-100.00,SW,236,6.0,8.0,31,0.00,,,0.00,,2013-06-07 01:52:00,
2013-06-06 20:12:00,71.0,39.0,-100.00,South,188,4.0,8.0,31,0.00,,,0.00,,2013-06-07 02:12:00,
2013-06-06 20:22:00,71.0,39.0,-100.00,South,188,4.0,8.0,31,0.00,,,0.00,,2013-06-07 02:22:00,
2013-06-06 20:32:00,71.0,39.0,-100.00,South,188,4.0,8.0,31,0.00,,,0.00,,2013-06-07 02:32:00,
2013-06-06 20:42:00,71.0,39.0,-100.00,South,188,4.0,8.0,31,0.00,,,0.00,,2013-06-07 02:42:00,
2013-06-06 20:52:00,71.0,39.0,-100.00,South,188,4.0,8.0,31,0.00,,,0.00,,2013-06-07 02:52:00,
2013-06-06 21:12:00,62.0,47.0,-100.00,SE,143,1.0,1.0,59,0.00,,,0.00,,2013-06-07 03:12:00,
2013-06-06 21:22:00,62.0,47.0,-100.00,SE,143,1.0,1.0,59,0.00,,,0.00,,2013-06-07 03:22:00,
2013-06-06 21:33:00,62.0,47.0,-100.00,SE,143,1.0,1.0,59,0.00,,,0.00,,2013-06-07 03:33:00,
2013-06-06 21:43:00,62.0,47.0,-100.00,SE,143,1.0,1.0,59,0.00,,,0.00,,2013-06-07 03:43:00,
2013-06-06 21:53:00,62.0,47.0,-100.00,SE,143,1.0,1.0,59,0.00,,,0.00,,2013-06-07 03:53:00,
2013-06-06 22:12:00,51.0,45.0,-100.00,ENE,73,0.0,1.0,80,0.00,,,0.00,,2013-06-07 04:12:00,
2013-06-06 22:22:00,51.0,45.0,-100.00,ENE,73,0.0,1.0,80,0.00,,,0.00,,2013-06-07 04:22:00,
2013-06-06 22:33:00,51.0,45.0,-100.00,ENE,73,0.0,1.0,80,0.00,,,0.00,,2013-06-07 04:33:00,
2013-06-06 22:42:00,51.0,45.0,-100.00,ENE,73,0.0,1.0,80,0.00,,,0.00,,2013-06-07 04:42:00,
2013-06-06 22:53:00,51.0,45.0,-100.00,ENE,73,0.0,1.0,80,0.00,,,0.00,,2013-06-07 04:53:00,
2013-06-06 23:12:00,46.0,43.0,-100.00,North,2,2.0,5.0,87,0.00,,,0.00,,2013-06-07 05:12:00,
2013-06-06 23:22:00,46.0,43.0,-100.00,North,2,2.0,5.0,87,0.00,,,0.00,,2013-06-07 05:22:00,
2013-06-06 23:42:00,46.0,43.0,-100.00,North,2,2.0,5.0,87,0.00,,,0.00,,2013-06-07 05:42:00,
2013-06-06 23:52:00,46.0,43.0,-100.00,North,2,2.0,5.0,87,0.00,,,0.00,,2013-06-07 05:52:00,